Altamont, UT

9:07 PM MDT on July 03, 2015 (GMT -0600)
Cougar Ridge Ranch | | Change Station
CLOSE
Current Station
Personal Weather Station
Location: Duchesne, UT
Elevation: 6959 ft
Nearby Weather Stations

Elev 6959 ft 40.18 °N, 110.64 °W | Updated 15 seconds ago

Clear
Clear
76.6 °F
Feels Like 77 °F
N
2.9
Wind Variable Wind from SW
Gusts 8.0 mph

Today
High -- | Low -- °F
--% Chance of Precip.
Yesterday
High -- | Low -- °F
Precip. -- in
5:56 AM 8:55 PM
Waning Gibbous, 95% visible
Pressure 29.72 in
Visibility 10.0 miles
Clouds Clear
Heat Index 77 °F
Dew Point 35 °F
Humidity 22%
Rainfall 0.00 in
Snow Depth Not available.
UV 0.0 out of 12
Pollen 6.10 out of 12
Air Quality Not available.
Flu Activity Not available.
METAR KVEL 040253Z AUTO 30005KT 10SM CLR 28/11 A2996 RMK AO2 SLP064 T02780111 55001

More Conditions Fewer Conditions

Pressure 29.72 in
Visibility 10.0 miles
Clouds Clear
Heat Index 77 °F
Dew Point 35 °F
Humidity 22%
Rainfall 0.00 in
Snow Depth Not available.
UV 0.0 out of 12
Pollen 6.10 out of 12
Air Quality Not available.
Flu Activity Not available.
METAR KVEL 040253Z AUTO 30005KT 10SM CLR 28/11 A2996 RMK AO2 SLP064 T02780111 55001

More Conditions Fewer Conditions

10-Day Weather Forecast

×

Almanac

Astronomy

Jul. 03, 2015 Rise Set
Actual Time
Civil Twilight
Nautical Twilight
Astronomical Twilight
Moon
Length of Visible Light
Length of Day
Tomorrow will be .
, % of the Moon is Illuminated

Today's Extremes

State Highs State Lows

Community

WunderPhotos

Upload Photos

1,834,909 photos uploaded!

WunderBlogs® & News

Nearby

Air Quality

  Air Quality AQ Index Pollutant
Not available.

Snow Depth

Station Depth Elevation

Earthquake Activity

City Distance Mag. Time & Date
Minimum magnitude displayed is 2.5.

Coastal Water Temperatures

Place Temperature

Stations

Nearby Weather Stations

Station Location Temp. Windchill Dew Point Humidity Wind Precip. Elev Updated Type